createdAt,value
2023-05-01T00:02:03.441Z,8.90
2023-05-01T00:04:34.045Z,8.20
2023-05-01T00:07:02.463Z,7.70
2023-05-01T00:09:32.568Z,8.00
2023-05-01T00:12:03.084Z,7.60
2023-05-01T00:14:31.552Z,7.90
2023-05-01T00:16:59.797Z,8.10
2023-05-01T00:19:28.247Z,7.70
2023-05-01T00:21:56.543Z,8.90
2023-05-01T00:24:24.716Z,9.70
2023-05-01T00:27:10.107Z,9.10
2023-05-01T00:29:45.780Z,8.40
2023-05-01T00:32:15.459Z,7.70
2023-05-01T00:34:46.334Z,9.10
2023-05-01T00:37:15.226Z,8.20
2023-05-01T00:39:50.013Z,8.20
2023-05-01T00:42:21.939Z,8.30
2023-05-01T00:44:52.217Z,8.10
2023-05-01T00:47:20.609Z,8.80
2023-05-01T00:49:50.490Z,8.50
2023-05-01T00:52:19.004Z,8.10
2023-05-01T00:54:52.276Z,8.30
2023-05-01T00:57:22.453Z,7.30
2023-05-01T00:59:50.919Z,9.10
2023-05-01T01:02:19.170Z,7.80
2023-05-01T01:04:48.619Z,7.70
2023-05-01T01:07:54.800Z,7.60
2023-05-01T01:10:22.981Z,7.90
2023-05-01T01:12:55.395Z,8.20
2023-05-01T01:15:33.635Z,8.40
2023-05-01T01:18:07.934Z,9.30
2023-05-01T01:20:42.303Z,9.40
2023-05-01T01:23:47.727Z,8.70
2023-05-01T01:26:39.495Z,10.10
2023-05-01T01:29:37.147Z,8.40
2023-05-01T01:32:20.723Z,8.70
2023-05-01T01:34:56.797Z,8.20
2023-05-01T01:37:43.256Z,9.20
2023-05-01T01:40:18.892Z,8.50
2023-05-01T01:42:53.218Z,8.20
2023-05-01T01:45:24.297Z,8.10
2023-05-01T01:47:54.914Z,7.80
2023-05-01T01:50:28.186Z,7.50
2023-05-01T01:53:00.400Z,7.70
2023-05-01T01:55:31.815Z,8.50
2023-05-01T01:58:03.191Z,8.30
2023-05-01T02:00:34.593Z,8.80
2023-05-01T02:03:03.852Z,8.40
2023-05-01T02:05:34.589Z,8.30
2023-05-01T02:08:05.578Z,8.20
2023-05-01T02:10:35.680Z,8.70
2023-05-01T02:13:06.001Z,8.60
2023-05-01T02:15:35.309Z,8.10
2023-05-01T02:18:06.039Z,8.10
2023-05-01T02:20:35.169Z,7.70
2023-05-01T02:23:05.505Z,7.60
2023-05-01T02:25:39.495Z,8.60
2023-05-01T02:28:23.257Z,7.50
2023-05-01T02:30:52.742Z,8.20
2023-05-01T02:33:22.799Z,8.70
2023-05-01T02:35:52.169Z,8.50
2023-05-01T02:38:20.490Z,8.30
2023-05-01T02:40:52.779Z,7.70
2023-05-01T02:43:23.519Z,7.60
2023-05-01T02:45:53.849Z,8.00
2023-05-01T02:48:27.869Z,8.20
2023-05-01T02:50:57.317Z,8.40
2023-05-01T02:53:25.737Z,8.10
2023-05-01T02:55:58.639Z,8.60
2023-05-01T02:58:32.732Z,8.50
2023-05-01T03:01:01.057Z,9.10
2023-05-01T03:03:29.578Z,8.80
2023-05-01T03:05:58.754Z,8.30
2023-05-01T03:08:27.149Z,8.50
2023-05-01T03:10:55.431Z,8.90
2023-05-01T03:13:23.641Z,9.10
2023-05-01T03:15:51.872Z,8.30
2023-05-01T03:18:22.403Z,9.40
2023-05-01T03:20:53.630Z,8.20
2023-05-01T03:23:23.485Z,7.90
2023-05-01T03:25:51.880Z,8.20
2023-05-01T03:28:24.412Z,8.40
2023-05-01T03:30:53.703Z,8.90
2023-05-01T03:33:22.066Z,8.40
2023-05-01T03:36:02.751Z,8.40
2023-05-01T03:38:32.796Z,8.50
2023-05-01T03:41:13.020Z,8.70
2023-05-01T03:44:10.442Z,8.00
2023-05-01T03:46:42.048Z,8.50
2023-05-01T03:49:17.402Z,8.60
2023-05-01T03:51:48.230Z,8.40
2023-05-01T03:54:16.653Z,8.30
2023-05-01T03:57:11.283Z,8.50
2023-05-01T03:59:39.798Z,8.60
2023-05-01T04:02:08.436Z,8.60
2023-05-01T04:04:37.310Z,8.30
2023-05-01T04:07:06.071Z,7.90
2023-05-01T04:09:34.330Z,7.70
2023-05-01T04:12:02.674Z,7.70
2023-05-01T04:14:31.389Z,8.50
2023-05-01T04:17:00.128Z,7.70
2023-05-01T04:19:29.006Z,8.60
2023-05-01T04:22:00.117Z,7.40
2023-05-01T04:24:28.286Z,8.30
2023-05-01T04:26:56.714Z,8.90
2023-05-01T04:30:17.223Z,7.40
2023-05-01T04:32:46.365Z,8.00
2023-05-01T04:35:15.066Z,8.80
2023-05-01T04:37:45.202Z,8.80
2023-05-01T04:40:13.803Z,8.30
2023-05-01T04:42:44.554Z,10.10
2023-05-01T04:45:16.294Z,8.70
2023-05-01T04:47:45.573Z,10.20
2023-05-01T04:50:14.530Z,9.50
2023-05-01T04:52:42.802Z,9.50
2023-05-01T04:55:11.541Z,9.00
2023-05-01T04:57:46.565Z,8.60
2023-05-01T05:00:15.122Z,8.80
2023-05-01T05:02:51.348Z,8.90
2023-05-01T05:05:19.874Z,10.30
2023-05-01T05:07:48.610Z,10.90
2023-05-01T05:10:35.907Z,8.30
2023-05-01T05:13:27.608Z,9.70
2023-05-01T05:16:01.886Z,10.50
2023-05-01T05:18:59.479Z,8.90
2023-05-01T05:21:31.851Z,8.50
2023-05-01T05:24:00.478Z,8.80
2023-05-01T05:26:28.868Z,7.80
2023-05-01T05:28:59.537Z,7.80
2023-05-01T05:31:27.889Z,7.80
2023-05-01T05:33:56.400Z,11.00
2023-05-01T05:36:25.097Z,8.10
2023-05-01T05:38:54.280Z,7.10
2023-05-01T05:41:22.944Z,7.60
2023-05-01T05:43:54.326Z,7.30
2023-05-01T05:46:22.727Z,6.80
2023-05-01T05:48:51.235Z,6.60
2023-05-01T05:51:19.745Z,6.90
2023-05-01T05:53:48.266Z,7.30
2023-05-01T05:56:16.735Z,7.50
2023-05-01T05:58:46.475Z,7.80
2023-05-01T06:01:15.115Z,8.10
2023-05-01T06:03:43.699Z,9.00
2023-05-01T06:06:12.333Z,7.80
2023-05-01T06:08:40.839Z,7.40
2023-05-01T06:11:12.012Z,8.80
2023-05-01T06:13:40.291Z,7.50
2023-05-01T06:16:08.724Z,7.50
2023-05-01T06:18:38.005Z,8.30
2023-05-01T06:21:07.053Z,8.30
2023-05-01T06:23:35.757Z,7.80
2023-05-01T06:26:26.454Z,8.50
2023-05-01T06:28:55.009Z,8.60
2023-05-01T06:31:23.506Z,9.10
2023-05-01T06:33:55.326Z,7.80
2023-05-01T06:36:29.413Z,7.70
2023-05-01T06:38:57.851Z,8.90
2023-05-01T06:41:27.184Z,8.90
2023-05-01T06:43:55.859Z,8.30
2023-05-01T06:46:24.159Z,9.10
2023-05-01T06:48:52.651Z,6.90
2023-05-01T06:51:20.855Z,6.40
2023-05-01T06:53:49.162Z,6.30
2023-05-01T06:56:18.662Z,7.10
2023-05-01T06:58:46.982Z,6.10
2023-05-01T07:01:15.966Z,6.10
2023-05-01T07:03:44.918Z,6.20
2023-05-01T07:06:13.833Z,6.10
2023-05-01T07:08:42.651Z,6.20
2023-05-01T07:11:10.834Z,6.90
2023-05-01T07:13:39.839Z,6.00
2023-05-01T07:16:08.383Z,5.80
2023-05-01T07:18:37.895Z,6.10
2023-05-01T07:21:10.181Z,7.50
2023-05-01T07:23:39.137Z,6.90
2023-05-01T07:26:07.967Z,7.70
2023-05-01T07:28:36.421Z,8.30
2023-05-01T07:31:05.818Z,7.70
2023-05-01T07:33:37.399Z,6.50
2023-05-01T07:36:06.046Z,6.60
2023-05-01T07:38:37.380Z,6.80
2023-05-01T07:41:05.863Z,6.50
2023-05-01T07:43:35.459Z,5.60
2023-05-01T07:46:05.760Z,5.70
2023-05-01T07:48:35.623Z,5.50
2023-05-01T07:51:05.663Z,4.80
2023-05-01T07:53:35.236Z,4.80
2023-05-01T07:56:09.537Z,5.30
2023-05-01T07:58:38.176Z,4.80
2023-05-01T08:01:07.208Z,4.80
2023-05-01T08:03:39.967Z,4.50
2023-05-01T08:06:12.125Z,4.70
2023-05-01T08:08:41.933Z,4.50
2023-05-01T08:11:10.451Z,3.90
2023-05-01T08:13:39.292Z,4.30
2023-05-01T08:16:08.094Z,4.50
2023-05-01T08:18:38.711Z,4.40
2023-05-01T08:21:12.676Z,4.50
2023-05-01T08:23:41.269Z,5.00
2023-05-01T08:26:09.776Z,4.80
2023-05-01T08:28:39.838Z,4.20
2023-05-01T08:31:08.514Z,4.30
2023-05-01T08:33:37.006Z,4.20
2023-05-01T08:36:06.908Z,4.50
2023-05-01T08:38:35.319Z,4.80
2023-05-01T08:41:03.886Z,4.70
2023-05-01T08:43:33.155Z,4.30
2023-05-01T08:46:02.043Z,4.60
2023-05-01T08:48:32.853Z,3.80
2023-05-01T08:51:04.314Z,3.70
2023-05-01T08:53:34.273Z,3.80
2023-05-01T08:56:11.496Z,3.50
2023-05-01T08:58:40.994Z,3.70
2023-05-01T09:01:12.485Z,3.30
2023-05-01T09:03:42.708Z,3.30
2023-05-01T09:06:12.464Z,3.40
2023-05-01T09:08:41.770Z,3.60
2023-05-01T09:11:12.416Z,3.20
2023-05-01T09:13:43.873Z,3.80
2023-05-01T09:16:13.539Z,3.30
2023-05-01T09:18:42.180Z,4.10
2023-05-01T09:21:16.419Z,3.90
2023-05-01T09:23:58.667Z,3.60
2023-05-01T09:26:27.730Z,3.70
2023-05-01T09:28:58.586Z,3.70
2023-05-01T09:31:29.320Z,4.10
2023-05-01T09:34:02.762Z,3.70
2023-05-01T09:36:33.208Z,3.60
2023-05-01T09:39:02.441Z,3.90
2023-05-01T09:41:34.070Z,3.80
2023-05-01T09:44:03.413Z,4.40
2023-05-01T09:46:43.210Z,4.10
2023-05-01T09:49:16.144Z,3.40
2023-05-01T09:51:45.122Z,3.50
2023-05-01T09:54:21.464Z,3.20
2023-05-01T09:56:51.198Z,3.80
2023-05-01T09:59:21.368Z,3.90
2023-05-01T10:01:50.859Z,3.80
2023-05-01T10:04:33.361Z,4.10
2023-05-01T10:07:14.857Z,3.80
2023-05-01T10:09:43.368Z,3.30
2023-05-01T10:12:24.431Z,4.00
2023-05-01T10:14:54.287Z,4.00
2023-05-01T10:17:22.960Z,3.50
2023-05-01T10:20:09.285Z,3.20
2023-05-01T10:22:41.653Z,3.00
2023-05-01T10:25:15.195Z,3.30
2023-05-01T10:27:43.783Z,3.30
2023-05-01T10:30:12.867Z,2.90
2023-05-01T10:32:42.578Z,3.30
2023-05-01T10:35:25.597Z,2.90
2023-05-01T10:38:02.892Z,3.40
2023-05-01T10:40:42.090Z,3.10
2023-05-01T10:43:30.022Z,3.00
2023-05-01T10:46:10.374Z,3.30
2023-05-01T10:48:45.098Z,3.00
2023-05-01T10:51:22.434Z,3.00
2023-05-01T10:54:16.046Z,3.00
2023-05-01T10:56:44.651Z,3.10
2023-05-01T10:59:13.259Z,2.80
2023-05-01T11:01:54.351Z,3.40
2023-05-01T11:04:27.815Z,2.80
2023-05-01T11:07:03.821Z,3.50
2023-05-01T11:09:59.162Z,2.30
2023-05-01T11:12:46.213Z,2.50
2023-05-01T11:15:27.914Z,2.80
2023-05-01T11:17:57.750Z,3.00
2023-05-01T11:20:26.279Z,2.80
2023-05-01T11:22:58.866Z,2.70
2023-05-01T11:25:31.334Z,2.80
2023-05-01T11:28:09.412Z,3.10
2023-05-01T11:30:41.262Z,2.80
2023-05-01T11:33:10.899Z,2.80
2023-05-01T11:35:57.943Z,2.40
2023-05-01T11:38:40.041Z,2.20
2023-05-01T11:41:19.262Z,2.20
2023-05-01T11:43:56.919Z,2.50
2023-05-01T11:46:40.791Z,2.50
2023-05-01T11:49:12.903Z,2.70
2023-05-01T11:51:42.466Z,2.10
2023-05-01T11:54:20.490Z,2.40
2023-05-01T11:57:05.302Z,2.30
2023-05-01T12:00:05.503Z,2.20
2023-05-01T12:02:57.695Z,2.80
2023-05-01T12:05:28.909Z,1.90
2023-05-01T12:08:20.741Z,2.30
2023-05-01T12:10:59.155Z,2.40
2023-05-01T12:13:28.112Z,2.20
2023-05-01T12:15:57.838Z,2.70
2023-05-01T12:18:26.429Z,2.40
2023-05-01T12:20:55.453Z,2.50
2023-05-01T12:23:43.154Z,2.10
2023-05-01T12:26:17.926Z,2.40
2023-05-01T12:29:09.776Z,2.60
2023-05-01T12:32:00.953Z,2.80
2023-05-01T12:34:33.794Z,3.40
2023-05-01T12:37:03.665Z,3.10
2023-05-01T12:39:45.006Z,2.70
2023-05-01T12:42:15.170Z,2.80
2023-05-01T12:44:44.203Z,2.20
2023-05-01T12:47:13.309Z,2.30
2023-05-01T12:49:41.871Z,2.30
2023-05-01T12:52:10.288Z,2.40
2023-05-01T12:54:40.876Z,2.60
2023-05-01T12:57:16.933Z,2.80
2023-05-01T12:59:47.565Z,3.10
2023-05-01T13:02:18.535Z,2.90
2023-05-01T13:04:50.359Z,2.80
2023-05-01T13:07:19.634Z,22.60
2023-05-01T13:09:53.784Z,16.20
2023-05-01T13:12:26.085Z,6.80
2023-05-01T13:14:59.258Z,22.10
2023-05-01T13:17:30.508Z,5.20
2023-05-01T13:20:05.576Z,3.40
2023-05-01T13:22:36.682Z,2.90
2023-05-01T13:25:22.154Z,2.70
2023-05-01T13:28:07.601Z,2.30
2023-05-01T13:30:39.820Z,2.40
2023-05-01T13:33:14.409Z,2.50
2023-05-01T13:35:48.193Z,2.60
2023-05-01T13:38:19.643Z,3.00
2023-05-01T13:40:57.096Z,3.00
2023-05-01T13:43:48.964Z,3.20
2023-05-01T13:46:21.476Z,2.50
2023-05-01T13:48:50.994Z,2.80
2023-05-01T13:51:25.071Z,2.80
2023-05-01T13:53:56.561Z,2.60
2023-05-01T13:56:24.990Z,3.30
2023-05-01T13:59:02.190Z,3.00
2023-05-01T14:01:40.506Z,2.90
2023-05-01T14:04:21.899Z,3.10
2023-05-01T14:07:03.094Z,3.10
2023-05-01T14:09:40.264Z,2.90
2023-05-01T14:12:19.909Z,3.30
2023-05-01T14:15:15.046Z,3.40
2023-05-01T14:18:20.265Z,7.40
2023-05-01T14:20:58.842Z,6.60
2023-05-01T14:26:49.167Z,3.00
2023-05-01T14:29:24.122Z,5.10
2023-05-01T14:31:53.040Z,3.40
2023-05-01T14:34:22.834Z,4.50
2023-05-01T14:36:51.192Z,4.70
2023-05-01T14:39:22.080Z,10.60
2023-05-01T14:41:50.440Z,2.70
2023-05-01T14:44:20.871Z,4.30
2023-05-01T14:46:52.032Z,4.10
2023-05-01T14:49:24.732Z,3.40
2023-05-01T14:51:54.278Z,16.10
2023-05-01T14:54:22.636Z,9.10
2023-05-01T14:56:50.891Z,5.00
2023-05-01T14:59:19.190Z,4.70
2023-05-01T15:01:47.640Z,3.40
2023-05-01T15:04:16.104Z,5.70
2023-05-01T15:06:44.721Z,5.70
2023-05-01T15:09:13.650Z,3.60
2023-05-01T15:11:41.885Z,2.80
2023-05-01T15:14:10.240Z,3.00
2023-05-01T15:16:38.630Z,3.00
2023-05-01T15:19:06.884Z,3.30
2023-05-01T15:21:37.335Z,3.00
2023-05-01T15:24:06.062Z,3.30
2023-05-01T15:26:35.113Z,2.80
2023-05-01T15:29:05.086Z,3.30
2023-05-01T15:31:33.536Z,3.30
2023-05-01T15:34:02.576Z,3.20
2023-05-01T15:36:33.421Z,2.90
2023-05-01T15:39:05.778Z,3.20
2023-05-01T15:41:34.394Z,3.80
2023-05-01T15:44:03.090Z,4.20
2023-05-01T15:46:31.823Z,5.30
2023-05-01T15:49:01.483Z,4.80
2023-05-01T15:51:33.566Z,3.60
2023-05-01T15:54:04.007Z,3.50
2023-05-01T15:56:37.298Z,3.10
2023-05-01T15:59:07.710Z,4.00
2023-05-01T16:01:36.061Z,3.20
2023-05-01T16:04:04.813Z,3.20
2023-05-01T16:06:35.444Z,3.20
2023-05-01T16:09:05.165Z,6.20
2023-05-01T16:11:33.627Z,24.40
2023-05-01T16:14:01.967Z,12.20
2023-05-01T16:16:30.487Z,7.60
2023-05-01T16:19:00.573Z,3.60
2023-05-01T16:21:28.980Z,3.20
2023-05-01T16:23:57.484Z,3.50
2023-05-01T16:26:28.334Z,4.90
2023-05-01T16:29:00.616Z,5.00
2023-05-01T16:31:41.162Z,6.30
2023-05-01T16:34:13.688Z,5.30
2023-05-01T16:36:42.734Z,8.40
2023-05-01T16:39:14.398Z,8.90
2023-05-01T16:41:47.491Z,5.90
2023-05-01T16:44:18.697Z,7.60
2023-05-01T16:47:05.761Z,4.80
2023-05-01T16:49:52.557Z,5.40
2023-05-01T16:52:25.278Z,4.80
2023-05-01T16:55:05.021Z,6.70
2023-05-01T16:57:33.890Z,7.20
2023-05-01T17:00:02.655Z,5.10
2023-05-01T17:02:31.589Z,9.70
2023-05-01T17:05:00.541Z,4.90
2023-05-01T17:07:30.925Z,9.60
2023-05-01T17:09:59.522Z,9.70
2023-05-01T17:12:35.695Z,11.40
2023-05-01T17:15:09.288Z,6.70
2023-05-01T17:17:37.817Z,8.70
2023-05-01T17:20:09.623Z,7.50
2023-05-01T17:25:09.714Z,9.30
2023-05-01T17:27:38.180Z,7.60
2023-05-01T17:30:09.040Z,5.70
2023-05-01T17:32:47.022Z,5.00
2023-05-01T17:35:18.599Z,5.00
2023-05-01T17:37:51.036Z,4.40
2023-05-01T17:40:22.385Z,4.20
2023-05-01T17:42:50.809Z,5.20
2023-05-01T17:45:22.103Z,4.20
2023-05-01T17:48:25.957Z,23.30
2023-05-01T17:50:55.950Z,9.80
2023-05-01T17:53:33.862Z,9.90
2023-05-01T17:56:19.597Z,7.30
2023-05-01T18:02:02.469Z,7.20
2023-05-01T18:05:41.879Z,6.10
2023-05-01T18:08:22.031Z,4.90
2023-05-01T18:10:54.203Z,4.40
2023-05-01T18:13:37.560Z,3.90
2023-05-01T18:16:11.993Z,3.80
2023-05-01T18:18:41.203Z,4.30
2023-05-01T18:21:09.550Z,3.60
2023-05-01T18:23:39.257Z,4.10
2023-05-01T18:26:08.271Z,3.40
2023-05-01T18:28:39.078Z,3.90
2023-05-01T18:31:07.585Z,3.60
2023-05-01T18:33:36.041Z,4.00
2023-05-01T18:36:04.655Z,5.10
2023-05-01T18:38:33.203Z,4.70
2023-05-01T18:41:01.804Z,3.60
2023-05-01T18:43:32.141Z,3.80
2023-05-01T18:46:00.474Z,3.50
2023-05-01T18:48:28.805Z,4.80
2023-05-01T18:51:08.366Z,5.00
2023-05-01T18:54:29.817Z,4.50
2023-05-01T18:56:58.006Z,4.00
2023-05-01T18:59:30.902Z,4.30
2023-05-01T19:01:59.179Z,4.80
2023-05-01T19:04:27.822Z,4.80
2023-05-01T19:06:56.273Z,4.20
2023-05-01T19:09:24.648Z,3.70
2023-05-01T19:11:53.320Z,3.70
2023-05-01T19:14:21.927Z,4.00
2023-05-01T19:16:50.576Z,4.30
2023-05-01T19:19:27.917Z,3.50
2023-05-01T19:21:56.398Z,4.20
2023-05-01T19:24:24.971Z,4.00
2023-05-01T19:26:53.387Z,4.20
2023-05-01T19:29:21.611Z,5.20
2023-05-01T19:31:50.322Z,4.50
2023-05-01T19:34:20.261Z,4.50
2023-05-01T19:36:49.379Z,4.50
2023-05-01T19:39:17.627Z,5.20
2023-05-01T19:41:47.185Z,5.60
2023-05-01T19:44:18.524Z,5.60
2023-05-01T19:46:46.937Z,5.20
2023-05-01T19:49:18.238Z,5.10
2023-05-01T19:51:46.866Z,5.00
2023-05-01T19:54:16.489Z,5.80
2023-05-01T19:56:46.917Z,5.40
2023-05-01T19:59:15.265Z,5.20
2023-05-01T20:01:44.902Z,4.70
2023-05-01T20:04:13.355Z,5.60
2023-05-01T20:06:41.979Z,5.80
2023-05-01T20:09:10.397Z,5.40
2023-05-01T20:11:40.238Z,5.60
2023-05-01T20:14:08.982Z,5.00
2023-05-01T20:17:03.278Z,5.20
2023-05-01T20:19:31.766Z,5.40
2023-05-01T20:22:00.127Z,5.00
2023-05-01T20:24:28.507Z,5.00
2023-05-01T20:26:58.213Z,5.10
2023-05-01T20:29:27.096Z,5.90
2023-05-01T20:31:55.836Z,5.50
2023-05-01T20:34:24.208Z,5.60
2023-05-01T20:36:52.702Z,5.10
2023-05-01T20:39:21.002Z,5.60
2023-05-01T20:41:49.561Z,5.00
2023-05-01T20:44:17.849Z,4.70
2023-05-01T20:46:46.854Z,5.60
2023-05-01T20:49:16.228Z,4.60
2023-05-01T20:51:44.629Z,5.30
2023-05-01T20:54:12.965Z,4.90
2023-05-01T20:56:41.986Z,5.70
2023-05-01T21:00:02.329Z,5.50
2023-05-01T21:02:31.429Z,4.90
2023-05-01T21:04:59.813Z,4.40
2023-05-01T21:07:30.126Z,4.90
2023-05-01T21:09:58.621Z,4.70
2023-05-01T21:12:28.689Z,4.20
2023-05-01T21:14:57.559Z,4.00
2023-05-01T21:17:26.875Z,5.30
2023-05-01T21:19:55.150Z,4.50
2023-05-01T21:22:23.800Z,4.40
2023-05-01T21:24:55.085Z,4.60
2023-05-01T21:27:24.877Z,4.20
2023-05-01T21:29:57.156Z,4.90
2023-05-01T21:32:34.858Z,4.50
2023-05-01T21:35:06.302Z,4.50
2023-05-01T21:37:34.699Z,4.60
2023-05-01T21:40:07.607Z,4.30
2023-05-01T21:42:39.287Z,5.10
2023-05-01T21:45:15.134Z,4.10
2023-05-01T21:47:47.877Z,4.20
2023-05-01T21:50:18.736Z,5.10
2023-05-01T21:52:49.210Z,4.80
2023-05-01T21:55:20.732Z,4.40
2023-05-01T21:57:53.349Z,4.90
2023-05-01T22:00:22.050Z,4.80
2023-05-01T22:02:52.396Z,4.80
2023-05-01T22:05:23.409Z,4.40
2023-05-01T22:07:52.949Z,4.60
2023-05-01T22:10:21.349Z,4.70
2023-05-01T22:12:49.980Z,4.70
2023-05-01T22:15:18.624Z,4.30
2023-05-01T22:17:47.042Z,4.70
2023-05-01T22:20:15.517Z,4.70
2023-05-01T22:22:43.873Z,5.20
2023-05-01T22:25:12.196Z,3.40
2023-05-01T22:27:40.920Z,4.00
2023-05-01T22:30:09.768Z,5.40
2023-05-01T22:32:38.124Z,4.30
2023-05-01T22:35:08.509Z,4.60
2023-05-01T22:37:36.909Z,3.70
2023-05-01T22:40:05.862Z,4.70
2023-05-01T22:42:34.263Z,4.90
2023-05-01T22:45:02.569Z,4.90
2023-05-01T22:47:30.903Z,4.60
2023-05-01T22:49:59.373Z,4.30
2023-05-01T22:52:27.790Z,5.40
2023-05-01T22:54:56.186Z,4.90
2023-05-01T22:57:24.414Z,4.40
2023-05-01T22:59:52.653Z,4.90
2023-05-01T23:02:21.518Z,4.50
2023-05-01T23:04:51.288Z,4.60
2023-05-01T23:07:19.633Z,4.70
2023-05-01T23:09:47.917Z,4.70
2023-05-01T23:12:22.791Z,4.30
2023-05-01T23:17:19.849Z,4.30
2023-05-01T23:19:48.156Z,3.80
2023-05-01T23:22:18.046Z,4.50
2023-05-01T23:24:48.606Z,5.70
2023-05-01T23:27:19.147Z,3.80
2023-05-01T23:29:59.531Z,3.70
2023-05-01T23:32:31.324Z,4.50
2023-05-01T23:35:12.744Z,4.60
2023-05-01T23:37:41.948Z,4.90
2023-05-01T23:40:10.507Z,5.00
2023-05-01T23:42:39.715Z,4.30
2023-05-01T23:45:08.506Z,4.30
2023-05-01T23:47:39.045Z,4.30
2023-05-01T23:50:08.110Z,4.50
2023-05-01T23:52:36.522Z,3.90
2023-05-01T23:55:05.104Z,4.00
2023-05-01T23:57:33.461Z,4.60
